sensor_id;sensor_type;location;lat;lon;timestamp;P1;durP1;ratioP1;P2;durP2;ratioP2
4810;SDS011;2419;51.276;6.472;2024-02-21T00:01:07;24.23;;;9.30;;
4810;SDS011;2419;51.276;6.472;2024-02-21T00:03:36;20.83;;;10.07;;
4810;SDS011;2419;51.276;6.472;2024-02-21T00:06:04;25.43;;;10.20;;
4810;SDS011;2419;51.276;6.472;2024-02-21T00:08:32;28.67;;;11.10;;
4810;SDS011;2419;51.276;6.472;2024-02-21T00:11:00;25.10;;;9.90;;
4810;SDS011;2419;51.276;6.472;2024-02-21T00:13:30;19.93;;;10.03;;
4810;SDS011;2419;51.276;6.472;2024-02-21T00:15:59;25.10;;;11.20;;
4810;SDS011;2419;51.276;6.472;2024-02-21T00:18:28;15.23;;;8.67;;
4810;SDS011;2419;51.276;6.472;2024-02-21T00:20:56;21.03;;;9.27;;
4810;SDS011;2419;51.276;6.472;2024-02-21T00:23:24;19.50;;;9.60;;
4810;SDS011;2419;51.276;6.472;2024-02-21T00:25:52;22.83;;;9.57;;
4810;SDS011;2419;51.276;6.472;2024-02-21T00:28:20;24.80;;;8.90;;
4810;SDS011;2419;51.276;6.472;2024-02-21T00:30:50;26.27;;;9.17;;
4810;SDS011;2419;51.276;6.472;2024-02-21T00:33:19;33.27;;;11.83;;
4810;SDS011;2419;51.276;6.472;2024-02-21T00:35:47;26.00;;;9.93;;
4810;SDS011;2419;51.276;6.472;2024-02-21T00:38:15;27.00;;;10.10;;
4810;SDS011;2419;51.276;6.472;2024-02-21T00:40:44;22.33;;;9.33;;
4810;SDS011;2419;51.276;6.472;2024-02-21T00:43:13;21.63;;;8.90;;
4810;SDS011;2419;51.276;6.472;2024-02-21T00:45:41;22.87;;;9.90;;
4810;SDS011;2419;51.276;6.472;2024-02-21T00:48:11;17.43;;;10.00;;
4810;SDS011;2419;51.276;6.472;2024-02-21T00:50:39;20.63;;;8.70;;
4810;SDS011;2419;51.276;6.472;2024-02-21T00:53:07;23.43;;;9.07;;
4810;SDS011;2419;51.276;6.472;2024-02-21T00:55:36;24.87;;;9.27;;
4810;SDS011;2419;51.276;6.472;2024-02-21T00:58:04;32.03;;;9.10;;
4810;SDS011;2419;51.276;6.472;2024-02-21T01:00:32;18.10;;;9.30;;
4810;SDS011;2419;51.276;6.472;2024-02-21T01:03:00;24.70;;;8.53;;
4810;SDS011;2419;51.276;6.472;2024-02-21T01:05:29;15.17;;;8.10;;
4810;SDS011;2419;51.276;6.472;2024-02-21T01:07:58;19.30;;;8.10;;
4810;SDS011;2419;51.276;6.472;2024-02-21T01:10:26;17.00;;;8.30;;
4810;SDS011;2419;51.276;6.472;2024-02-21T01:12:54;20.63;;;8.47;;
4810;SDS011;2419;51.276;6.472;2024-02-21T01:15:22;24.23;;;8.47;;
4810;SDS011;2419;51.276;6.472;2024-02-21T01:17:50;24.03;;;9.63;;
4810;SDS011;2419;51.276;6.472;2024-02-21T01:20:21;19.57;;;8.63;;
4810;SDS011;2419;51.276;6.472;2024-02-21T01:22:50;23.57;;;7.97;;
4810;SDS011;2419;51.276;6.472;2024-02-21T01:25:18;16.30;;;8.40;;
4810;SDS011;2419;51.276;6.472;2024-02-21T01:27:46;19.53;;;7.93;;
4810;SDS011;2419;51.276;6.472;2024-02-21T01:30:15;17.40;;;7.53;;
4810;SDS011;2419;51.276;6.472;2024-02-21T01:32:43;22.47;;;9.60;;
4810;SDS011;2419;51.276;6.472;2024-02-21T01:35:11;21.70;;;8.77;;
4810;SDS011;2419;51.276;6.472;2024-02-21T01:37:39;16.17;;;8.50;;
4810;SDS011;2419;51.276;6.472;2024-02-21T01:40:09;14.63;;;6.90;;
4810;SDS011;2419;51.276;6.472;2024-02-21T01:42:38;13.30;;;7.40;;
4810;SDS011;2419;51.276;6.472;2024-02-21T01:45:07;21.03;;;8.30;;
4810;SDS011;2419;51.276;6.472;2024-02-21T01:47:36;14.23;;;7.40;;
4810;SDS011;2419;51.276;6.472;2024-02-21T01:50:05;25.20;;;8.40;;
4810;SDS011;2419;51.276;6.472;2024-02-21T01:52:34;24.60;;;8.67;;
4810;SDS011;2419;51.276;6.472;2024-02-21T01:55:03;20.40;;;9.17;;
4810;SDS011;2419;51.276;6.472;2024-02-21T01:57:33;21.40;;;7.43;;
4810;SDS011;2419;51.276;6.472;2024-02-21T02:00:03;17.10;;;8.60;;
4810;SDS011;2419;51.276;6.472;2024-02-21T02:02:36;37.13;;;8.73;;
4810;SDS011;2419;51.276;6.472;2024-02-21T02:05:06;14.13;;;6.27;;
4810;SDS011;2419;51.276;6.472;2024-02-21T02:07:35;20.93;;;7.30;;
4810;SDS011;2419;51.276;6.472;2024-02-21T02:10:04;28.03;;;9.40;;
4810;SDS011;2419;51.276;6.472;2024-02-21T02:12:34;18.43;;;7.83;;
4810;SDS011;2419;51.276;6.472;2024-02-21T02:15:02;17.23;;;8.10;;
4810;SDS011;2419;51.276;6.472;2024-02-21T02:17:31;18.23;;;7.97;;
4810;SDS011;2419;51.276;6.472;2024-02-21T02:20:00;23.00;;;9.37;;
4810;SDS011;2419;51.276;6.472;2024-02-21T02:22:28;20.23;;;7.40;;
4810;SDS011;2419;51.276;6.472;2024-02-21T02:25:00;22.07;;;7.20;;
4810;SDS011;2419;51.276;6.472;2024-02-21T02:27:29;20.90;;;8.10;;
4810;SDS011;2419;51.276;6.472;2024-02-21T02:29:57;24.83;;;8.43;;
4810;SDS011;2419;51.276;6.472;2024-02-21T02:32:25;22.40;;;7.10;;
4810;SDS011;2419;51.276;6.472;2024-02-21T02:34:53;23.50;;;8.40;;
4810;SDS011;2419;51.276;6.472;2024-02-21T02:37:22;19.03;;;7.70;;
4810;SDS011;2419;51.276;6.472;2024-02-21T02:39:50;18.27;;;8.07;;
4810;SDS011;2419;51.276;6.472;2024-02-21T02:42:20;29.23;;;8.23;;
4810;SDS011;2419;51.276;6.472;2024-02-21T02:44:48;18.33;;;8.80;;
4810;SDS011;2419;51.276;6.472;2024-02-21T02:47:16;16.10;;;8.00;;
4810;SDS011;2419;51.276;6.472;2024-02-21T02:49:44;26.07;;;7.43;;
4810;SDS011;2419;51.276;6.472;2024-02-21T02:52:17;21.73;;;9.17;;
4810;SDS011;2419;51.276;6.472;2024-02-21T02:54:45;15.97;;;6.97;;
4810;SDS011;2419;51.276;6.472;2024-02-21T02:57:18;20.17;;;7.30;;
4810;SDS011;2419;51.276;6.472;2024-02-21T02:59:48;21.27;;;7.93;;
4810;SDS011;2419;51.276;6.472;2024-02-21T03:02:16;23.93;;;8.03;;
4810;SDS011;2419;51.276;6.472;2024-02-21T03:04:45;17.17;;;7.90;;
4810;SDS011;2419;51.276;6.472;2024-02-21T03:07:13;19.63;;;6.80;;
4810;SDS011;2419;51.276;6.472;2024-02-21T03:09:42;15.93;;;7.20;;
4810;SDS011;2419;51.276;6.472;2024-02-21T03:12:10;27.37;;;7.50;;
4810;SDS011;2419;51.276;6.472;2024-02-21T03:14:38;27.17;;;9.40;;
4810;SDS011;2419;51.276;6.472;2024-02-21T03:17:08;14.53;;;7.07;;
4810;SDS011;2419;51.276;6.472;2024-02-21T03:19:36;20.40;;;7.73;;
4810;SDS011;2419;51.276;6.472;2024-02-21T03:22:04;16.37;;;8.47;;
4810;SDS011;2419;51.276;6.472;2024-02-21T03:24:32;17.10;;;7.10;;
4810;SDS011;2419;51.276;6.472;2024-02-21T03:27:01;17.33;;;7.53;;
4810;SDS011;2419;51.276;6.472;2024-02-21T03:29:29;14.00;;;7.67;;
4810;SDS011;2419;51.276;6.472;2024-02-21T03:31:57;20.50;;;6.70;;
4810;SDS011;2419;51.276;6.472;2024-02-21T03:34:26;23.13;;;7.00;;
4810;SDS011;2419;51.276;6.472;2024-02-21T03:36:55;23.73;;;8.10;;
4810;SDS011;2419;51.276;6.472;2024-02-21T03:39:23;23.20;;;7.07;;
4810;SDS011;2419;51.276;6.472;2024-02-21T03:41:51;18.70;;;7.10;;
4810;SDS011;2419;51.276;6.472;2024-02-21T03:44:19;18.80;;;8.20;;
4810;SDS011;2419;51.276;6.472;2024-02-21T03:46:47;18.17;;;7.93;;
4810;SDS011;2419;51.276;6.472;2024-02-21T03:49:15;20.27;;;8.37;;
4810;SDS011;2419;51.276;6.472;2024-02-21T03:51:45;11.47;;;6.63;;
4810;SDS011;2419;51.276;6.472;2024-02-21T03:54:13;14.63;;;6.67;;
4810;SDS011;2419;51.276;6.472;2024-02-21T03:56:41;16.43;;;6.80;;
4810;SDS011;2419;51.276;6.472;2024-02-21T03:59:10;21.80;;;7.67;;
4810;SDS011;2419;51.276;6.472;2024-02-21T04:01:38;20.23;;;7.23;;
4810;SDS011;2419;51.276;6.472;2024-02-21T04:04:06;17.30;;;6.83;;
4810;SDS011;2419;51.276;6.472;2024-02-21T04:06:34;17.50;;;6.87;;
4810;SDS011;2419;51.276;6.472;2024-02-21T04:09:04;22.70;;;7.30;;
4810;SDS011;2419;51.276;6.472;2024-02-21T04:11:32;19.10;;;6.87;;
4810;SDS011;2419;51.276;6.472;2024-02-21T04:14:00;18.80;;;6.97;;
4810;SDS011;2419;51.276;6.472;2024-02-21T04:16:28;15.70;;;6.60;;
4810;SDS011;2419;51.276;6.472;2024-02-21T04:18:56;14.20;;;5.67;;
4810;SDS011;2419;51.276;6.472;2024-02-21T04:21:24;17.67;;;6.37;;
4810;SDS011;2419;51.276;6.472;2024-02-21T04:23:53;16.30;;;6.23;;
4810;SDS011;2419;51.276;6.472;2024-02-21T04:26:23;21.90;;;6.70;;
4810;SDS011;2419;51.276;6.472;2024-02-21T04:28:51;10.50;;;5.70;;
4810;SDS011;2419;51.276;6.472;2024-02-21T04:31:19;27.47;;;7.23;;
4810;SDS011;2419;51.276;6.472;2024-02-21T04:33:47;14.03;;;5.57;;
4810;SDS011;2419;51.276;6.472;2024-02-21T04:36:15;19.40;;;6.50;;
4810;SDS011;2419;51.276;6.472;2024-02-21T04:38:43;16.97;;;5.80;;
4810;SDS011;2419;51.276;6.472;2024-02-21T04:41:12;23.20;;;5.90;;
4810;SDS011;2419;51.276;6.472;2024-02-21T04:43:41;11.43;;;6.00;;
4810;SDS011;2419;51.276;6.472;2024-02-21T04:46:09;18.93;;;6.57;;
4810;SDS011;2419;51.276;6.472;2024-02-21T04:48:38;14.50;;;5.60;;
4810;SDS011;2419;51.276;6.472;2024-02-21T04:51:06;13.00;;;6.37;;
4810;SDS011;2419;51.276;6.472;2024-02-21T04:53:34;12.10;;;5.90;;
4810;SDS011;2419;51.276;6.472;2024-02-21T04:56:02;16.23;;;5.67;;
4810;SDS011;2419;51.276;6.472;2024-02-21T04:58:30;18.93;;;6.73;;
4810;SDS011;2419;51.276;6.472;2024-02-21T05:00:59;16.10;;;6.27;;
4810;SDS011;2419;51.276;6.472;2024-02-21T05:03:28;15.40;;;6.23;;
4810;SDS011;2419;51.276;6.472;2024-02-21T05:05:56;18.27;;;6.53;;
4810;SDS011;2419;51.276;6.472;2024-02-21T05:08:24;13.43;;;5.90;;
4810;SDS011;2419;51.276;6.472;2024-02-21T05:10:52;16.53;;;6.30;;
4810;SDS011;2419;51.276;6.472;2024-02-21T05:13:20;17.00;;;6.57;;
4810;SDS011;2419;51.276;6.472;2024-02-21T05:15:48;14.93;;;6.60;;
4810;SDS011;2419;51.276;6.472;2024-02-21T05:18:18;14.57;;;6.40;;
4810;SDS011;2419;51.276;6.472;2024-02-21T05:20:47;17.97;;;6.27;;
4810;SDS011;2419;51.276;6.472;2024-02-21T05:23:15;13.07;;;5.07;;
4810;SDS011;2419;51.276;6.472;2024-02-21T05:25:43;17.00;;;6.43;;
4810;SDS011;2419;51.276;6.472;2024-02-21T05:28:11;12.90;;;5.57;;
4810;SDS011;2419;51.276;6.472;2024-02-21T05:30:39;16.93;;;5.00;;
4810;SDS011;2419;51.276;6.472;2024-02-21T05:33:09;15.67;;;5.53;;
4810;SDS011;2419;51.276;6.472;2024-02-21T05:35:39;18.30;;;6.10;;
4810;SDS011;2419;51.276;6.472;2024-02-21T05:38:07;16.40;;;6.53;;
4810;SDS011;2419;51.276;6.472;2024-02-21T05:40:38;17.60;;;5.70;;
4810;SDS011;2419;51.276;6.472;2024-02-21T05:43:06;21.50;;;6.80;;
4810;SDS011;2419;51.276;6.472;2024-02-21T05:45:35;10.10;;;5.30;;
4810;SDS011;2419;51.276;6.472;2024-02-21T05:48:03;21.33;;;6.33;;
4810;SDS011;2419;51.276;6.472;2024-02-21T05:50:32;15.70;;;6.13;;
4810;SDS011;2419;51.276;6.472;2024-02-21T05:53:02;12.37;;;6.10;;
4810;SDS011;2419;51.276;6.472;2024-02-21T05:55:30;17.07;;;5.57;;
4810;SDS011;2419;51.276;6.472;2024-02-21T05:57:59;12.13;;;5.90;;
4810;SDS011;2419;51.276;6.472;2024-02-21T06:00:27;22.77;;;6.93;;
4810;SDS011;2419;51.276;6.472;2024-02-21T06:02:55;10.70;;;5.10;;
4810;SDS011;2419;51.276;6.472;2024-02-21T06:05:23;18.57;;;6.20;;
4810;SDS011;2419;51.276;6.472;2024-02-21T06:07:51;17.40;;;6.67;;
4810;SDS011;2419;51.276;6.472;2024-02-21T06:10:20;26.07;;;6.00;;
4810;SDS011;2419;51.276;6.472;2024-02-21T06:12:48;15.20;;;5.70;;
4810;SDS011;2419;51.276;6.472;2024-02-21T06:15:16;20.40;;;6.13;;
4810;SDS011;2419;51.276;6.472;2024-02-21T06:17:44;15.57;;;5.83;;
4810;SDS011;2419;51.276;6.472;2024-02-21T06:20:13;20.80;;;5.23;;
4810;SDS011;2419;51.276;6.472;2024-02-21T06:22:43;11.70;;;5.03;;
4810;SDS011;2419;51.276;6.472;2024-02-21T06:25:11;15.70;;;5.80;;
4810;SDS011;2419;51.276;6.472;2024-02-21T06:27:41;16.30;;;6.13;;
4810;SDS011;2419;51.276;6.472;2024-02-21T06:30:09;11.87;;;5.43;;
4810;SDS011;2419;51.276;6.472;2024-02-21T06:32:38;11.87;;;5.87;;
4810;SDS011;2419;51.276;6.472;2024-02-21T06:35:06;17.40;;;6.13;;
4810;SDS011;2419;51.276;6.472;2024-02-21T06:37:34;12.43;;;5.40;;
4810;SDS011;2419;51.276;6.472;2024-02-21T06:40:03;16.20;;;6.00;;
4810;SDS011;2419;51.276;6.472;2024-02-21T06:42:31;12.70;;;5.53;;
4810;SDS011;2419;51.276;6.472;2024-02-21T06:45:01;12.20;;;5.30;;
4810;SDS011;2419;51.276;6.472;2024-02-21T06:47:29;12.43;;;5.53;;
4810;SDS011;2419;51.276;6.472;2024-02-21T06:49:57;17.13;;;5.83;;
4810;SDS011;2419;51.276;6.472;2024-02-21T06:52:25;13.67;;;4.67;;
4810;SDS011;2419;51.276;6.472;2024-02-21T06:54:53;10.30;;;4.93;;
4810;SDS011;2419;51.276;6.472;2024-02-21T06:57:21;11.00;;;5.07;;
4810;SDS011;2419;51.276;6.472;2024-02-21T06:59:49;9.97;;;5.20;;
4810;SDS011;2419;51.276;6.472;2024-02-21T07:02:19;10.70;;;4.40;;
4810;SDS011;2419;51.276;6.472;2024-02-21T07:04:47;8.83;;;4.43;;
4810;SDS011;2419;51.276;6.472;2024-02-21T07:07:16;14.87;;;7.00;;
4810;SDS011;2419;51.276;6.472;2024-02-21T07:09:44;9.20;;;4.57;;
4810;SDS011;2419;51.276;6.472;2024-02-21T07:12:14;13.90;;;5.40;;
4810;SDS011;2419;51.276;6.472;2024-02-21T07:14:44;15.43;;;5.17;;
4810;SDS011;2419;51.276;6.472;2024-02-21T07:17:12;11.97;;;4.40;;
4810;SDS011;2419;51.276;6.472;2024-02-21T07:19:41;12.50;;;5.10;;
4810;SDS011;2419;51.276;6.472;2024-02-21T07:22:10;10.63;;;4.33;;
4810;SDS011;2419;51.276;6.472;2024-02-21T07:24:38;12.27;;;4.60;;
4810;SDS011;2419;51.276;6.472;2024-02-21T07:27:06;8.63;;;4.13;;
4810;SDS011;2419;51.276;6.472;2024-02-21T07:29:34;10.83;;;4.90;;
4810;SDS011;2419;51.276;6.472;2024-02-21T07:32:02;13.23;;;4.73;;
4810;SDS011;2419;51.276;6.472;2024-02-21T07:34:30;16.67;;;4.67;;
4810;SDS011;2419;51.276;6.472;2024-02-21T07:37:00;12.60;;;4.27;;
4810;SDS011;2419;51.276;6.472;2024-02-21T07:39:28;9.17;;;4.00;;
4810;SDS011;2419;51.276;6.472;2024-02-21T07:41:56;8.73;;;3.40;;
4810;SDS011;2419;51.276;6.472;2024-02-21T07:44:24;12.23;;;4.03;;
4810;SDS011;2419;51.276;6.472;2024-02-21T07:46:52;8.57;;;4.73;;
4810;SDS011;2419;51.276;6.472;2024-02-21T07:49:20;9.63;;;3.93;;
4810;SDS011;2419;51.276;6.472;2024-02-21T07:51:48;5.80;;;3.80;;
4810;SDS011;2419;51.276;6.472;2024-02-21T07:54:17;15.00;;;5.13;;
4810;SDS011;2419;51.276;6.472;2024-02-21T07:56:47;15.00;;;4.73;;
4810;SDS011;2419;51.276;6.472;2024-02-21T07:59:15;14.23;;;4.90;;
4810;SDS011;2419;51.276;6.472;2024-02-21T08:01:43;19.13;;;5.73;;
4810;SDS011;2419;51.276;6.472;2024-02-21T08:04:12;9.53;;;4.63;;
4810;SDS011;2419;51.276;6.472;2024-02-21T08:06:41;17.80;;;5.43;;
4810;SDS011;2419;51.276;6.472;2024-02-21T08:09:09;12.00;;;4.87;;
4810;SDS011;2419;51.276;6.472;2024-02-21T08:11:39;11.50;;;4.90;;
4810;SDS011;2419;51.276;6.472;2024-02-21T08:14:07;12.17;;;4.70;;
4810;SDS011;2419;51.276;6.472;2024-02-21T08:16:35;10.10;;;3.80;;
4810;SDS011;2419;51.276;6.472;2024-02-21T08:19:03;13.87;;;4.60;;
4810;SDS011;2419;51.276;6.472;2024-02-21T08:21:31;9.97;;;4.33;;
4810;SDS011;2419;51.276;6.472;2024-02-21T08:23:59;13.07;;;4.97;;
4810;SDS011;2419;51.276;6.472;2024-02-21T08:26:27;13.23;;;3.50;;
4810;SDS011;2419;51.276;6.472;2024-02-21T08:28:58;12.53;;;3.97;;
4810;SDS011;2419;51.276;6.472;2024-02-21T08:31:27;10.23;;;4.20;;
4810;SDS011;2419;51.276;6.472;2024-02-21T08:33:58;8.67;;;3.37;;
4810;SDS011;2419;51.276;6.472;2024-02-21T08:36:29;9.90;;;3.90;;
4810;SDS011;2419;51.276;6.472;2024-02-21T08:38:58;7.73;;;4.80;;
4810;SDS011;2419;51.276;6.472;2024-02-21T08:41:26;8.27;;;3.77;;
4810;SDS011;2419;51.276;6.472;2024-02-21T08:44:16;7.07;;;3.53;;
4810;SDS011;2419;51.276;6.472;2024-02-21T08:46:44;7.20;;;3.37;;
4810;SDS011;2419;51.276;6.472;2024-02-21T08:49:13;7.17;;;3.70;;
4810;SDS011;2419;51.276;6.472;2024-02-21T08:51:42;9.70;;;3.17;;
4810;SDS011;2419;51.276;6.472;2024-02-21T08:54:10;8.40;;;4.17;;
4810;SDS011;2419;51.276;6.472;2024-02-21T08:56:38;5.50;;;3.10;;
4810;SDS011;2419;51.276;6.472;2024-02-21T08:59:06;7.83;;;6.23;;
4810;SDS011;2419;51.276;6.472;2024-02-21T09:01:36;17.33;;;4.00;;
4810;SDS011;2419;51.276;6.472;2024-02-21T09:04:04;12.53;;;4.27;;
4810;SDS011;2419;51.276;6.472;2024-02-21T09:06:34;10.63;;;3.13;;
4810;SDS011;2419;51.276;6.472;2024-02-21T09:09:05;14.37;;;4.00;;
4810;SDS011;2419;51.276;6.472;2024-02-21T09:11:34;7.93;;;3.90;;
4810;SDS011;2419;51.276;6.472;2024-02-21T09:14:02;6.57;;;3.57;;
4810;SDS011;2419;51.276;6.472;2024-02-21T09:16:31;6.00;;;3.33;;
4810;SDS011;2419;51.276;6.472;2024-02-21T09:19:01;8.20;;;3.23;;
4810;SDS011;2419;51.276;6.472;2024-02-21T09:21:29;8.83;;;4.13;;
4810;SDS011;2419;51.276;6.472;2024-02-21T09:23:57;5.20;;;3.07;;
4810;SDS011;2419;51.276;6.472;2024-02-21T09:26:26;8.57;;;2.97;;
4810;SDS011;2419;51.276;6.472;2024-02-21T09:28:54;13.03;;;3.60;;
4810;SDS011;2419;51.276;6.472;2024-02-21T09:31:22;15.17;;;3.60;;
4810;SDS011;2419;51.276;6.472;2024-02-21T09:33:50;11.90;;;3.70;;
4810;SDS011;2419;51.276;6.472;2024-02-21T09:36:20;15.03;;;4.10;;
4810;SDS011;2419;51.276;6.472;2024-02-21T09:38:48;8.97;;;3.30;;
4810;SDS011;2419;51.276;6.472;2024-02-21T09:41:17;16.53;;;3.60;;
4810;SDS011;2419;51.276;6.472;2024-02-21T09:43:51;6.73;;;3.07;;
4810;SDS011;2419;51.276;6.472;2024-02-21T09:46:24;7.17;;;3.20;;
4810;SDS011;2419;51.276;6.472;2024-02-21T09:49:01;8.70;;;3.43;;
4810;SDS011;2419;51.276;6.472;2024-02-21T09:51:38;8.03;;;3.10;;
4810;SDS011;2419;51.276;6.472;2024-02-21T09:54:09;6.03;;;3.07;;
4810;SDS011;2419;51.276;6.472;2024-02-21T09:56:44;7.70;;;2.37;;
4810;SDS011;2419;51.276;6.472;2024-02-21T09:59:13;7.33;;;2.80;;
4810;SDS011;2419;51.276;6.472;2024-02-21T10:01:42;5.13;;;2.60;;
4810;SDS011;2419;51.276;6.472;2024-02-21T10:04:11;6.23;;;2.90;;
4810;SDS011;2419;51.276;6.472;2024-02-21T10:06:41;6.80;;;2.93;;
4810;SDS011;2419;51.276;6.472;2024-02-21T10:09:19;6.10;;;2.90;;
4810;SDS011;2419;51.276;6.472;2024-02-21T10:11:48;7.43;;;2.93;;
4810;SDS011;2419;51.276;6.472;2024-02-21T10:14:16;6.53;;;2.57;;
4810;SDS011;2419;51.276;6.472;2024-02-21T10:16:45;5.80;;;2.67;;
4810;SDS011;2419;51.276;6.472;2024-02-21T10:19:17;6.80;;;3.57;;
4810;SDS011;2419;51.276;6.472;2024-02-21T10:22:00;9.80;;;2.40;;
4810;SDS011;2419;51.276;6.472;2024-02-21T10:24:30;5.30;;;2.73;;
4810;SDS011;2419;51.276;6.472;2024-02-21T10:26:59;6.07;;;2.63;;
4810;SDS011;2419;51.276;6.472;2024-02-21T10:29:30;6.70;;;2.90;;
4810;SDS011;2419;51.276;6.472;2024-02-21T10:32:04;6.27;;;2.50;;
4810;SDS011;2419;51.276;6.472;2024-02-21T10:34:34;8.97;;;2.67;;
4810;SDS011;2419;51.276;6.472;2024-02-21T10:37:04;4.87;;;1.90;;
4810;SDS011;2419;51.276;6.472;2024-02-21T10:39:33;6.90;;;2.93;;
4810;SDS011;2419;51.276;6.472;2024-02-21T10:42:03;8.33;;;2.60;;
4810;SDS011;2419;51.276;6.472;2024-02-21T10:44:32;5.77;;;3.33;;
4810;SDS011;2419;51.276;6.472;2024-02-21T10:47:01;5.20;;;2.80;;
4810;SDS011;2419;51.276;6.472;2024-02-21T10:49:36;8.77;;;3.47;;
4810;SDS011;2419;51.276;6.472;2024-02-21T10:52:09;5.83;;;2.80;;
4810;SDS011;2419;51.276;6.472;2024-02-21T10:54:44;7.60;;;2.33;;
4810;SDS011;2419;51.276;6.472;2024-02-21T10:57:13;8.23;;;3.57;;
4810;SDS011;2419;51.276;6.472;2024-02-21T10:59:41;12.20;;;3.07;;
4810;SDS011;2419;51.276;6.472;2024-02-21T11:02:12;4.87;;;2.80;;
4810;SDS011;2419;51.276;6.472;2024-02-21T11:04:40;4.30;;;2.77;;
4810;SDS011;2419;51.276;6.472;2024-02-21T11:07:11;7.10;;;2.90;;
4810;SDS011;2419;51.276;6.472;2024-02-21T11:09:40;4.80;;;2.37;;
4810;SDS011;2419;51.276;6.472;2024-02-21T11:12:08;6.23;;;2.87;;
4810;SDS011;2419;51.276;6.472;2024-02-21T11:14:38;6.60;;;3.00;;
4810;SDS011;2419;51.276;6.472;2024-02-21T11:17:14;6.93;;;2.90;;
4810;SDS011;2419;51.276;6.472;2024-02-21T11:19:43;12.63;;;3.17;;
4810;SDS011;2419;51.276;6.472;2024-02-21T11:22:16;9.50;;;2.83;;
4810;SDS011;2419;51.276;6.472;2024-02-21T11:24:46;8.40;;;2.90;;
4810;SDS011;2419;51.276;6.472;2024-02-21T11:27:14;7.10;;;2.97;;
4810;SDS011;2419;51.276;6.472;2024-02-21T11:29:43;4.43;;;1.90;;
4810;SDS011;2419;51.276;6.472;2024-02-21T11:32:14;5.47;;;2.50;;
4810;SDS011;2419;51.276;6.472;2024-02-21T11:34:52;9.60;;;2.60;;
4810;SDS011;2419;51.276;6.472;2024-02-21T11:37:23;3.43;;;2.60;;
4810;SDS011;2419;51.276;6.472;2024-02-21T11:39:53;3.50;;;2.63;;
4810;SDS011;2419;51.276;6.472;2024-02-21T11:42:22;9.03;;;2.40;;
4810;SDS011;2419;51.276;6.472;2024-02-21T11:44:52;12.47;;;2.50;;
4810;SDS011;2419;51.276;6.472;2024-02-21T11:47:23;2.87;;;2.57;;
4810;SDS011;2419;51.276;6.472;2024-02-21T11:49:51;6.00;;;3.00;;
4810;SDS011;2419;51.276;6.472;2024-02-21T11:52:23;4.87;;;2.97;;
4810;SDS011;2419;51.276;6.472;2024-02-21T11:54:53;4.20;;;2.57;;
4810;SDS011;2419;51.276;6.472;2024-02-21T11:57:24;6.70;;;2.73;;
4810;SDS011;2419;51.276;6.472;2024-02-21T11:59:52;6.77;;;3.60;;
4810;SDS011;2419;51.276;6.472;2024-02-21T12:02:25;3.87;;;2.17;;
4810;SDS011;2419;51.276;6.472;2024-02-21T12:04:54;5.43;;;2.27;;
4810;SDS011;2419;51.276;6.472;2024-02-21T12:07:24;6.20;;;2.37;;
4810;SDS011;2419;51.276;6.472;2024-02-21T12:09:58;11.53;;;2.80;;
4810;SDS011;2419;51.276;6.472;2024-02-21T12:12:26;5.47;;;2.20;;
4810;SDS011;2419;51.276;6.472;2024-02-21T12:14:55;5.70;;;2.30;;
4810;SDS011;2419;51.276;6.472;2024-02-21T12:17:24;5.00;;;2.00;;
4810;SDS011;2419;51.276;6.472;2024-02-21T12:19:52;3.00;;;2.20;;
4810;SDS011;2419;51.276;6.472;2024-02-21T12:22:21;4.90;;;2.43;;
4810;SDS011;2419;51.276;6.472;2024-02-21T12:24:50;2.47;;;2.00;;
4810;SDS011;2419;51.276;6.472;2024-02-21T12:27:18;5.93;;;2.43;;
4810;SDS011;2419;51.276;6.472;2024-02-21T12:29:46;6.30;;;2.50;;
4810;SDS011;2419;51.276;6.472;2024-02-21T12:32:14;4.07;;;2.50;;
4810;SDS011;2419;51.276;6.472;2024-02-21T12:34:42;5.13;;;2.80;;
4810;SDS011;2419;51.276;6.472;2024-02-21T12:37:21;6.47;;;2.30;;
4810;SDS011;2419;51.276;6.472;2024-02-21T12:39:51;6.10;;;2.60;;
4810;SDS011;2419;51.276;6.472;2024-02-21T12:42:19;7.97;;;2.47;;
4810;SDS011;2419;51.276;6.472;2024-02-21T12:44:47;5.73;;;2.67;;
4810;SDS011;2419;51.276;6.472;2024-02-21T12:47:15;4.90;;;2.83;;
4810;SDS011;2419;51.276;6.472;2024-02-21T12:49:45;8.03;;;2.73;;
4810;SDS011;2419;51.276;6.472;2024-02-21T12:52:14;4.63;;;2.50;;
4810;SDS011;2419;51.276;6.472;2024-02-21T12:54:42;4.43;;;2.00;;
4810;SDS011;2419;51.276;6.472;2024-02-21T12:57:12;5.73;;;2.70;;
4810;SDS011;2419;51.276;6.472;2024-02-21T12:59:41;4.43;;;2.30;;
4810;SDS011;2419;51.276;6.472;2024-02-21T13:02:09;5.70;;;2.27;;
4810;SDS011;2419;51.276;6.472;2024-02-21T13:04:37;6.23;;;2.10;;
4810;SDS011;2419;51.276;6.472;2024-02-21T13:07:07;4.53;;;2.47;;
4810;SDS011;2419;51.276;6.472;2024-02-21T13:09:35;5.57;;;2.80;;
4810;SDS011;2419;51.276;6.472;2024-02-21T13:12:03;5.23;;;2.33;;
4810;SDS011;2419;51.276;6.472;2024-02-21T13:14:33;6.70;;;3.10;;
4810;SDS011;2419;51.276;6.472;2024-02-21T13:17:01;6.90;;;2.77;;
4810;SDS011;2419;51.276;6.472;2024-02-21T13:19:30;4.70;;;2.00;;
4810;SDS011;2419;51.276;6.472;2024-02-21T13:21:58;11.00;;;2.47;;
4810;SDS011;2419;51.276;6.472;2024-02-21T13:24:26;8.13;;;2.60;;
4810;SDS011;2419;51.276;6.472;2024-02-21T13:26:54;11.93;;;2.00;;
4810;SDS011;2419;51.276;6.472;2024-02-21T13:29:22;8.80;;;2.90;;
4810;SDS011;2419;51.276;6.472;2024-02-21T13:31:52;4.13;;;2.10;;
4810;SDS011;2419;51.276;6.472;2024-02-21T13:34:20;8.10;;;2.50;;
4810;SDS011;2419;51.276;6.472;2024-02-21T13:36:48;8.77;;;2.67;;
4810;SDS011;2419;51.276;6.472;2024-02-21T13:39:16;12.17;;;2.70;;
4810;SDS011;2419;51.276;6.472;2024-02-21T13:41:45;5.30;;;2.47;;
4810;SDS011;2419;51.276;6.472;2024-02-21T13:44:13;5.93;;;2.43;;
4810;SDS011;2419;51.276;6.472;2024-02-21T13:46:41;7.57;;;2.17;;
4810;SDS011;2419;51.276;6.472;2024-02-21T13:49:11;3.60;;;2.13;;
4810;SDS011;2419;51.276;6.472;2024-02-21T13:51:39;4.30;;;2.40;;
4810;SDS011;2419;51.276;6.472;2024-02-21T13:54:09;5.93;;;2.83;;
4810;SDS011;2419;51.276;6.472;2024-02-21T13:56:37;3.00;;;2.30;;
4810;SDS011;2419;51.276;6.472;2024-02-21T13:59:05;10.20;;;2.50;;
4810;SDS011;2419;51.276;6.472;2024-02-21T14:01:34;10.30;;;2.90;;
4810;SDS011;2419;51.276;6.472;2024-02-21T14:04:03;5.63;;;2.77;;
4810;SDS011;2419;51.276;6.472;2024-02-21T14:06:32;9.00;;;2.63;;
4810;SDS011;2419;51.276;6.472;2024-02-21T14:09:01;10.30;;;2.50;;
4810;SDS011;2419;51.276;6.472;2024-02-21T14:11:29;2.80;;;1.97;;
4810;SDS011;2419;51.276;6.472;2024-02-21T14:13:58;7.10;;;2.60;;
4810;SDS011;2419;51.276;6.472;2024-02-21T14:16:26;15.13;;;2.53;;
4810;SDS011;2419;51.276;6.472;2024-02-21T14:18:56;5.23;;;2.00;;
4810;SDS011;2419;51.276;6.472;2024-02-21T14:21:24;4.43;;;2.30;;
4810;SDS011;2419;51.276;6.472;2024-02-21T14:23:54;5.40;;;2.40;;
4810;SDS011;2419;51.276;6.472;2024-02-21T14:26:23;6.70;;;2.57;;
4810;SDS011;2419;51.276;6.472;2024-02-21T14:28:51;5.47;;;2.20;;
4810;SDS011;2419;51.276;6.472;2024-02-21T14:31:19;6.47;;;2.37;;
4810;SDS011;2419;51.276;6.472;2024-02-21T14:33:47;8.00;;;2.90;;
4810;SDS011;2419;51.276;6.472;2024-02-21T14:36:15;5.80;;;2.00;;
4810;SDS011;2419;51.276;6.472;2024-02-21T14:38:43;3.20;;;2.30;;
4810;SDS011;2419;51.276;6.472;2024-02-21T14:41:13;9.50;;;4.80;;
4810;SDS011;2419;51.276;6.472;2024-02-21T14:43:41;4.23;;;2.70;;
4810;SDS011;2419;51.276;6.472;2024-02-21T14:46:12;4.60;;;1.93;;
4810;SDS011;2419;51.276;6.472;2024-02-21T14:48:40;6.73;;;2.13;;
4810;SDS011;2419;51.276;6.472;2024-02-21T14:51:08;5.83;;;2.27;;
4810;SDS011;2419;51.276;6.472;2024-02-21T14:53:36;5.50;;;3.27;;
4810;SDS011;2419;51.276;6.472;2024-02-21T14:56:04;5.43;;;2.30;;
4810;SDS011;2419;51.276;6.472;2024-02-21T14:58:41;3.87;;;2.57;;
4810;SDS011;2419;51.276;6.472;2024-02-21T15:01:09;2.83;;;1.70;;
4810;SDS011;2419;51.276;6.472;2024-02-21T15:03:39;10.03;;;1.93;;
4810;SDS011;2419;51.276;6.472;2024-02-21T15:06:08;6.33;;;2.43;;
4810;SDS011;2419;51.276;6.472;2024-02-21T15:08:36;4.27;;;1.90;;
4810;SDS011;2419;51.276;6.472;2024-02-21T15:11:04;5.80;;;2.17;;
4810;SDS011;2419;51.276;6.472;2024-02-21T15:13:34;4.40;;;2.20;;
4810;SDS011;2419;51.276;6.472;2024-02-21T15:16:04;7.90;;;2.20;;
4810;SDS011;2419;51.276;6.472;2024-02-21T15:18:33;3.70;;;1.80;;